Mt. Hope River @ Warrenville, Ct

Mount Hope River at Warrenville
 Total Drainage Area: 29 sq. miles 
 Drainage Area Controlled by Corps Dams: 0 sq. miles (0%) 
 Warning Flow/Stage: 810 cfs / 6.0 feet 
 Flood Flow/Stage: 1,230 cfs / 7.0 feet 
Date Time
(Eastern)
Stage
(ft)
Flow
(cfs)
CSM
(cfs / sq. mi.)
Jun-25 12:15 am 1.82 45 1.5
Jun-24 11:15 pm 1.82 45 1.5
Jun-24 10:15 pm 1.83 45 1.6
Jun-24 09:15 pm 1.86 48 1.7
Jun-24 08:15 pm 1.88 49 1.7
Jun-24 07:15 pm 1.90 51 1.8
Jun-24 06:15 pm 1.91 52 1.8
Jun-24 05:15 pm 1.94 55 1.9
Jun-24 04:15 pm 1.96 56 1.9
Jun-24 03:15 pm 1.98 58 2.0
Jun-24 02:15 pm 2.00 60 2.1
Jun-24 01:15 pm 2.02 62 2.1
Jun-24 12:15 pm 2.05 65 2.2
Jun-24 11:15 am 2.06 66 2.3
Jun-24 10:15 am 2.09 69 2.4
Jun-24 09:15 am 2.13 73 2.5
Jun-24 08:15 am 2.16 76 2.6
Jun-24 07:15 am 2.19 80 2.7
Jun-24 06:15 am 2.23 84 2.9
Jun-24 05:15 am 2.25 86 3.0
Jun-24 04:15 am 2.25 86 3.0
Jun-24 03:15 am 2.29 91 3.1
Jun-24 02:15 am 2.32 94 3.3
Jun-24 01:15 am 2.34 97 3.3
Jun-24 12:15 am 2.37 100 3.4
Report Generated June 25, 2024 01:11 am